sensor_id;sensor_type;location;lat;lon;timestamp;P1;durP1;ratioP1;P2;durP2;ratioP2
36355;SDS011;22384;54.302;18.596;2022-12-18T00:03:47;42.28;;;18.42;;
36355;SDS011;22384;54.302;18.596;2022-12-18T00:06:14;40.03;;;17.33;;
36355;SDS011;22384;54.302;18.596;2022-12-18T00:08:41;46.90;;;18.10;;
36355;SDS011;22384;54.302;18.596;2022-12-18T00:11:11;36.47;;;16.35;;
36355;SDS011;22384;54.302;18.596;2022-12-18T00:13:39;41.35;;;18.17;;
36355;SDS011;22384;54.302;18.596;2022-12-18T00:16:06;52.75;;;19.00;;
36355;SDS011;22384;54.302;18.596;2022-12-18T00:18:34;51.72;;;18.90;;
36355;SDS011;22384;54.302;18.596;2022-12-18T00:21:02;43.03;;;17.05;;
36355;SDS011;22384;54.302;18.596;2022-12-18T00:23:31;37.47;;;15.48;;
36355;SDS011;22384;54.302;18.596;2022-12-18T00:26:06;40.22;;;16.83;;
36355;SDS011;22384;54.302;18.596;2022-12-18T00:28:32;34.85;;;13.52;;
36355;SDS011;22384;54.302;18.596;2022-12-18T00:31:01;41.60;;;16.65;;
36355;SDS011;22384;54.302;18.596;2022-12-18T00:33:28;40.97;;;16.85;;
36355;SDS011;22384;54.302;18.596;2022-12-18T00:35:54;40.05;;;15.57;;
36355;SDS011;22384;54.302;18.596;2022-12-18T00:38:25;35.63;;;16.35;;
36355;SDS011;22384;54.302;18.596;2022-12-18T00:40:53;38.78;;;15.48;;
36355;SDS011;22384;54.302;18.596;2022-12-18T00:43:20;42.15;;;16.52;;
36355;SDS011;22384;54.302;18.596;2022-12-18T00:45:48;38.72;;;14.98;;
36355;SDS011;22384;54.302;18.596;2022-12-18T00:48:14;41.95;;;15.63;;
36355;SDS011;22384;54.302;18.596;2022-12-18T00:50:41;40.17;;;16.45;;
36355;SDS011;22384;54.302;18.596;2022-12-18T00:53:10;38.90;;;16.48;;
36355;SDS011;22384;54.302;18.596;2022-12-18T00:55:39;37.13;;;15.68;;
36355;SDS011;22384;54.302;18.596;2022-12-18T00:58:05;42.75;;;16.35;;
36355;SDS011;22384;54.302;18.596;2022-12-18T01:00:34;41.92;;;15.63;;
36355;SDS011;22384;54.302;18.596;2022-12-18T01:03:01;38.72;;;15.15;;
36355;SDS011;22384;54.302;18.596;2022-12-18T01:05:27;39.88;;;15.43;;
36355;SDS011;22384;54.302;18.596;2022-12-18T01:07:55;37.72;;;16.25;;
36355;SDS011;22384;54.302;18.596;2022-12-18T01:10:22;45.67;;;17.55;;
36355;SDS011;22384;54.302;18.596;2022-12-18T01:12:49;42.10;;;15.93;;
36355;SDS011;22384;54.302;18.596;2022-12-18T01:15:22;44.42;;;17.63;;
36355;SDS011;22384;54.302;18.596;2022-12-18T01:17:51;47.53;;;17.67;;
36355;SDS011;22384;54.302;18.596;2022-12-18T01:20:17;49.70;;;19.02;;
36355;SDS011;22384;54.302;18.596;2022-12-18T01:22:44;45.00;;;17.63;;
36355;SDS011;22384;54.302;18.596;2022-12-18T01:25:10;43.17;;;17.80;;
36355;SDS011;22384;54.302;18.596;2022-12-18T01:27:36;56.67;;;18.73;;
36355;SDS011;22384;54.302;18.596;2022-12-18T01:30:02;58.53;;;19.45;;
36355;SDS011;22384;54.302;18.596;2022-12-18T01:32:32;56.65;;;20.67;;
36355;SDS011;22384;54.302;18.596;2022-12-18T01:34:59;58.30;;;21.60;;
36355;SDS011;22384;54.302;18.596;2022-12-18T01:37:27;47.08;;;19.02;;
36355;SDS011;22384;54.302;18.596;2022-12-18T01:39:54;50.85;;;19.08;;
36355;SDS011;22384;54.302;18.596;2022-12-18T01:42:21;60.58;;;20.58;;
36355;SDS011;22384;54.302;18.596;2022-12-18T01:49:50;48.30;;;19.92;;
36355;SDS011;22384;54.302;18.596;2022-12-18T01:52:17;56.95;;;18.88;;
36355;SDS011;22384;54.302;18.596;2022-12-18T01:54:50;50.90;;;19.77;;
36355;SDS011;22384;54.302;18.596;2022-12-18T01:57:16;55.03;;;21.83;;
36355;SDS011;22384;54.302;18.596;2022-12-18T01:59:44;54.00;;;20.02;;
36355;SDS011;22384;54.302;18.596;2022-12-18T02:02:12;52.63;;;19.48;;
36355;SDS011;22384;54.302;18.596;2022-12-18T02:04:44;50.72;;;20.00;;
36355;SDS011;22384;54.302;18.596;2022-12-18T02:09:58;60.10;;;21.52;;
36355;SDS011;22384;54.302;18.596;2022-12-18T02:12:38;47.75;;;20.55;;
36355;SDS011;22384;54.302;18.596;2022-12-18T02:15:13;46.38;;;18.02;;
36355;SDS011;22384;54.302;18.596;2022-12-18T02:22:49;46.15;;;16.75;;
36355;SDS011;22384;54.302;18.596;2022-12-18T02:27:55;44.53;;;16.92;;
36355;SDS011;22384;54.302;18.596;2022-12-18T02:30:24;42.67;;;17.65;;
36355;SDS011;22384;54.302;18.596;2022-12-18T02:32:53;40.90;;;16.08;;
36355;SDS011;22384;54.302;18.596;2022-12-18T02:35:23;34.85;;;14.20;;
36355;SDS011;22384;54.302;18.596;2022-12-18T02:37:50;41.03;;;16.33;;
36355;SDS011;22384;54.302;18.596;2022-12-18T02:40:16;41.58;;;15.95;;
36355;SDS011;22384;54.302;18.596;2022-12-18T02:42:44;39.80;;;15.25;;
36355;SDS011;22384;54.302;18.596;2022-12-18T02:45:10;39.65;;;16.23;;
36355;SDS011;22384;54.302;18.596;2022-12-18T02:47:37;40.17;;;16.40;;
36355;SDS011;22384;54.302;18.596;2022-12-18T02:50:15;34.40;;;15.52;;
36355;SDS011;22384;54.302;18.596;2022-12-18T02:55:28;32.70;;;13.73;;
36355;SDS011;22384;54.302;18.596;2022-12-18T03:00:39;41.78;;;15.25;;
36355;SDS011;22384;54.302;18.596;2022-12-18T03:03:19;37.15;;;14.65;;
36355;SDS011;22384;54.302;18.596;2022-12-18T03:05:47;35.38;;;14.60;;
36355;SDS011;22384;54.302;18.596;2022-12-18T03:08:18;33.47;;;14.18;;
36355;SDS011;22384;54.302;18.596;2022-12-18T03:10:51;30.55;;;13.80;;
36355;SDS011;22384;54.302;18.596;2022-12-18T03:13:27;39.70;;;14.32;;
36355;SDS011;22384;54.302;18.596;2022-12-18T03:15:56;34.40;;;13.35;;
36355;SDS011;22384;54.302;18.596;2022-12-18T03:18:29;28.92;;;12.65;;
36355;SDS011;22384;54.302;18.596;2022-12-18T03:20:56;27.30;;;10.88;;
36355;SDS011;22384;54.302;18.596;2022-12-18T03:23:25;27.35;;;13.00;;
36355;SDS011;22384;54.302;18.596;2022-12-18T03:25:54;29.55;;;12.07;;
36355;SDS011;22384;54.302;18.596;2022-12-18T03:28:22;31.60;;;12.02;;
36355;SDS011;22384;54.302;18.596;2022-12-18T03:30:50;27.25;;;10.82;;
36355;SDS011;22384;54.302;18.596;2022-12-18T03:35:46;23.00;;;11.55;;
36355;SDS011;22384;54.302;18.596;2022-12-18T03:38:13;25.23;;;11.55;;
36355;SDS011;22384;54.302;18.596;2022-12-18T03:43:20;31.45;;;11.23;;
36355;SDS011;22384;54.302;18.596;2022-12-18T03:45:54;28.08;;;10.70;;
36355;SDS011;22384;54.302;18.596;2022-12-18T03:50:59;21.20;;;9.55;;
36355;SDS011;22384;54.302;18.596;2022-12-18T03:53:41;28.27;;;10.32;;
36355;SDS011;22384;54.302;18.596;2022-12-18T03:56:10;24.00;;;9.77;;
36355;SDS011;22384;54.302;18.596;2022-12-18T03:58:38;22.13;;;10.55;;
36355;SDS011;22384;54.302;18.596;2022-12-18T04:01:08;17.63;;;9.13;;
36355;SDS011;22384;54.302;18.596;2022-12-18T04:03:35;27.75;;;10.50;;
36355;SDS011;22384;54.302;18.596;2022-12-18T04:06:03;22.77;;;9.02;;
36355;SDS011;22384;54.302;18.596;2022-12-18T04:08:29;21.98;;;9.73;;
36355;SDS011;22384;54.302;18.596;2022-12-18T04:10:56;21.52;;;9.20;;
36355;SDS011;22384;54.302;18.596;2022-12-18T04:13:28;20.73;;;9.45;;
36355;SDS011;22384;54.302;18.596;2022-12-18T04:15:56;24.50;;;9.65;;
36355;SDS011;22384;54.302;18.596;2022-12-18T04:18:28;21.85;;;9.70;;
36355;SDS011;22384;54.302;18.596;2022-12-18T04:20:54;20.98;;;8.85;;
36355;SDS011;22384;54.302;18.596;2022-12-18T04:23:22;20.90;;;9.32;;
36355;SDS011;22384;54.302;18.596;2022-12-18T04:25:48;22.30;;;9.77;;
36355;SDS011;22384;54.302;18.596;2022-12-18T04:28:16;20.65;;;9.75;;
36355;SDS011;22384;54.302;18.596;2022-12-18T04:30:44;21.75;;;9.60;;
36355;SDS011;22384;54.302;18.596;2022-12-18T04:33:14;18.55;;;8.68;;
36355;SDS011;22384;54.302;18.596;2022-12-18T04:35:40;25.20;;;9.73;;
36355;SDS011;22384;54.302;18.596;2022-12-18T04:38:08;24.30;;;10.60;;
36355;SDS011;22384;54.302;18.596;2022-12-18T04:40:38;19.42;;;9.13;;
36355;SDS011;22384;54.302;18.596;2022-12-18T04:43:04;23.63;;;9.73;;
36355;SDS011;22384;54.302;18.596;2022-12-18T04:45:31;22.25;;;8.88;;
36355;SDS011;22384;54.302;18.596;2022-12-18T04:47:59;18.15;;;8.18;;
36355;SDS011;22384;54.302;18.596;2022-12-18T04:50:26;24.08;;;9.25;;
36355;SDS011;22384;54.302;18.596;2022-12-18T04:52:52;23.05;;;9.40;;
36355;SDS011;22384;54.302;18.596;2022-12-18T04:55:20;21.33;;;8.15;;
36355;SDS011;22384;54.302;18.596;2022-12-18T04:57:46;17.70;;;9.00;;
36355;SDS011;22384;54.302;18.596;2022-12-18T05:00:12;17.10;;;9.02;;
36355;SDS011;22384;54.302;18.596;2022-12-18T05:02:39;19.05;;;8.95;;
36355;SDS011;22384;54.302;18.596;2022-12-18T05:05:06;29.98;;;12.93;;
36355;SDS011;22384;54.302;18.596;2022-12-18T05:07:32;19.63;;;8.82;;
36355;SDS011;22384;54.302;18.596;2022-12-18T05:10:00;22.60;;;9.63;;
36355;SDS011;22384;54.302;18.596;2022-12-18T05:12:33;25.67;;;10.20;;
36355;SDS011;22384;54.302;18.596;2022-12-18T05:15:21;24.65;;;9.73;;
36355;SDS011;22384;54.302;18.596;2022-12-18T05:17:49;20.75;;;8.73;;
36355;SDS011;22384;54.302;18.596;2022-12-18T05:20:15;21.30;;;9.45;;
36355;SDS011;22384;54.302;18.596;2022-12-18T05:22:43;17.38;;;8.77;;
36355;SDS011;22384;54.302;18.596;2022-12-18T05:25:15;16.98;;;8.73;;
36355;SDS011;22384;54.302;18.596;2022-12-18T05:27:43;17.35;;;8.25;;
36355;SDS011;22384;54.302;18.596;2022-12-18T05:30:11;19.65;;;8.48;;
36355;SDS011;22384;54.302;18.596;2022-12-18T05:32:38;19.67;;;8.27;;
36355;SDS011;22384;54.302;18.596;2022-12-18T05:35:05;20.38;;;9.02;;
36355;SDS011;22384;54.302;18.596;2022-12-18T05:37:32;18.92;;;8.63;;
36355;SDS011;22384;54.302;18.596;2022-12-18T05:39:59;18.48;;;6.63;;
36355;SDS011;22384;54.302;18.596;2022-12-18T05:42:25;17.40;;;8.07;;
36355;SDS011;22384;54.302;18.596;2022-12-18T05:44:52;18.45;;;7.88;;
36355;SDS011;22384;54.302;18.596;2022-12-18T05:47:19;17.33;;;8.82;;
36355;SDS011;22384;54.302;18.596;2022-12-18T05:49:45;18.33;;;8.93;;
36355;SDS011;22384;54.302;18.596;2022-12-18T05:52:13;17.55;;;7.50;;
36355;SDS011;22384;54.302;18.596;2022-12-18T05:54:39;19.45;;;7.78;;
36355;SDS011;22384;54.302;18.596;2022-12-18T05:57:05;20.27;;;9.02;;
36355;SDS011;22384;54.302;18.596;2022-12-18T05:59:33;18.50;;;8.45;;
36355;SDS011;22384;54.302;18.596;2022-12-18T06:02:00;19.00;;;8.68;;
36355;SDS011;22384;54.302;18.596;2022-12-18T06:04:27;22.13;;;8.95;;
36355;SDS011;22384;54.302;18.596;2022-12-18T06:07:00;19.02;;;7.57;;
36355;SDS011;22384;54.302;18.596;2022-12-18T06:09:28;18.35;;;8.13;;
36355;SDS011;22384;54.302;18.596;2022-12-18T06:11:54;20.10;;;8.80;;
36355;SDS011;22384;54.302;18.596;2022-12-18T06:14:20;23.73;;;9.52;;
36355;SDS011;22384;54.302;18.596;2022-12-18T06:16:47;18.90;;;9.07;;
36355;SDS011;22384;54.302;18.596;2022-12-18T06:19:17;20.20;;;8.52;;
36355;SDS011;22384;54.302;18.596;2022-12-18T06:21:43;16.42;;;5.97;;
36355;SDS011;22384;54.302;18.596;2022-12-18T06:24:09;16.23;;;8.90;;
36355;SDS011;22384;54.302;18.596;2022-12-18T06:26:38;19.38;;;8.43;;
36355;SDS011;22384;54.302;18.596;2022-12-18T06:29:07;18.42;;;8.73;;
36355;SDS011;22384;54.302;18.596;2022-12-18T06:31:35;18.95;;;7.95;;
36355;SDS011;22384;54.302;18.596;2022-12-18T06:34:04;16.58;;;7.82;;
36355;SDS011;22384;54.302;18.596;2022-12-18T06:36:30;18.95;;;8.07;;
36355;SDS011;22384;54.302;18.596;2022-12-18T06:38:57;19.33;;;8.35;;
36355;SDS011;22384;54.302;18.596;2022-12-18T06:41:23;17.10;;;7.45;;
36355;SDS011;22384;54.302;18.596;2022-12-18T06:43:49;16.25;;;7.60;;
36355;SDS011;22384;54.302;18.596;2022-12-18T06:46:17;20.15;;;8.48;;
36355;SDS011;22384;54.302;18.596;2022-12-18T06:48:46;17.23;;;8.00;;
36355;SDS011;22384;54.302;18.596;2022-12-18T06:51:12;19.30;;;7.53;;
36355;SDS011;22384;54.302;18.596;2022-12-18T06:53:46;13.13;;;7.40;;
36355;SDS011;22384;54.302;18.596;2022-12-18T06:56:13;20.92;;;9.07;;
36355;SDS011;22384;54.302;18.596;2022-12-18T06:58:39;16.13;;;7.50;;
36355;SDS011;22384;54.302;18.596;2022-12-18T07:01:07;17.15;;;8.75;;
36355;SDS011;22384;54.302;18.596;2022-12-18T07:03:36;17.17;;;8.15;;
36355;SDS011;22384;54.302;18.596;2022-12-18T07:06:03;19.05;;;7.88;;
36355;SDS011;22384;54.302;18.596;2022-12-18T07:08:29;15.02;;;7.82;;
36355;SDS011;22384;54.302;18.596;2022-12-18T07:10:56;15.77;;;7.25;;
36355;SDS011;22384;54.302;18.596;2022-12-18T07:13:22;19.23;;;8.23;;
36355;SDS011;22384;54.302;18.596;2022-12-18T07:15:49;18.38;;;8.43;;
36355;SDS011;22384;54.302;18.596;2022-12-18T07:18:15;16.80;;;8.30;;
36355;SDS011;22384;54.302;18.596;2022-12-18T07:20:43;18.70;;;7.82;;
36355;SDS011;22384;54.302;18.596;2022-12-18T07:23:10;16.65;;;7.70;;
36355;SDS011;22384;54.302;18.596;2022-12-18T07:25:38;13.48;;;7.25;;
36355;SDS011;22384;54.302;18.596;2022-12-18T07:28:04;17.40;;;7.43;;
36355;SDS011;22384;54.302;18.596;2022-12-18T07:30:31;16.52;;;6.55;;
36355;SDS011;22384;54.302;18.596;2022-12-18T07:32:57;15.82;;;6.38;;
36355;SDS011;22384;54.302;18.596;2022-12-18T07:35:23;14.45;;;7.53;;
36355;SDS011;22384;54.302;18.596;2022-12-18T07:37:49;18.88;;;6.93;;
36355;SDS011;22384;54.302;18.596;2022-12-18T07:40:15;15.90;;;7.57;;
36355;SDS011;22384;54.302;18.596;2022-12-18T07:42:42;11.02;;;5.85;;
36355;SDS011;22384;54.302;18.596;2022-12-18T07:45:09;15.88;;;6.20;;
36355;SDS011;22384;54.302;18.596;2022-12-18T07:47:36;12.85;;;6.03;;
36355;SDS011;22384;54.302;18.596;2022-12-18T07:50:02;14.85;;;6.18;;
36355;SDS011;22384;54.302;18.596;2022-12-18T07:52:29;12.80;;;6.55;;
36355;SDS011;22384;54.302;18.596;2022-12-18T07:54:55;15.40;;;6.63;;
36355;SDS011;22384;54.302;18.596;2022-12-18T07:57:24;14.23;;;6.68;;
36355;SDS011;22384;54.302;18.596;2022-12-18T07:59:50;13.57;;;6.05;;
36355;SDS011;22384;54.302;18.596;2022-12-18T08:02:17;14.40;;;6.07;;
36355;SDS011;22384;54.302;18.596;2022-12-18T08:04:44;13.95;;;6.30;;
36355;SDS011;22384;54.302;18.596;2022-12-18T08:07:10;14.70;;;5.85;;
36355;SDS011;22384;54.302;18.596;2022-12-18T08:09:43;10.38;;;6.05;;
36355;SDS011;22384;54.302;18.596;2022-12-18T08:12:10;12.18;;;5.70;;
36355;SDS011;22384;54.302;18.596;2022-12-18T08:14:42;15.77;;;5.45;;
36355;SDS011;22384;54.302;18.596;2022-12-18T08:17:10;9.90;;;4.90;;
36355;SDS011;22384;54.302;18.596;2022-12-18T08:19:38;16.17;;;6.45;;
36355;SDS011;22384;54.302;18.596;2022-12-18T08:22:05;11.23;;;5.70;;
36355;SDS011;22384;54.302;18.596;2022-12-18T08:24:32;15.82;;;6.63;;
36355;SDS011;22384;54.302;18.596;2022-12-18T08:26:59;16.67;;;7.88;;
36355;SDS011;22384;54.302;18.596;2022-12-18T08:29:26;16.05;;;6.38;;
36355;SDS011;22384;54.302;18.596;2022-12-18T08:31:53;16.00;;;6.75;;
36355;SDS011;22384;54.302;18.596;2022-12-18T08:34:21;14.68;;;5.95;;
36355;SDS011;22384;54.302;18.596;2022-12-18T08:36:47;10.50;;;5.60;;
36355;SDS011;22384;54.302;18.596;2022-12-18T08:39:14;13.10;;;6.50;;
36355;SDS011;22384;54.302;18.596;2022-12-18T08:41:40;14.63;;;6.50;;
36355;SDS011;22384;54.302;18.596;2022-12-18T08:44:10;17.40;;;7.47;;
36355;SDS011;22384;54.302;18.596;2022-12-18T08:46:55;13.20;;;6.35;;
36355;SDS011;22384;54.302;18.596;2022-12-18T08:49:23;12.85;;;6.22;;
36355;SDS011;22384;54.302;18.596;2022-12-18T08:51:53;13.48;;;6.45;;
36355;SDS011;22384;54.302;18.596;2022-12-18T08:54:19;20.50;;;8.13;;
36355;SDS011;22384;54.302;18.596;2022-12-18T08:56:46;17.15;;;7.30;;
36355;SDS011;22384;54.302;18.596;2022-12-18T08:59:15;16.17;;;7.15;;
36355;SDS011;22384;54.302;18.596;2022-12-18T09:01:43;19.88;;;8.50;;
36355;SDS011;22384;54.302;18.596;2022-12-18T09:04:10;19.02;;;8.82;;
36355;SDS011;22384;54.302;18.596;2022-12-18T09:06:43;23.52;;;8.77;;
36355;SDS011;22384;54.302;18.596;2022-12-18T09:09:11;17.50;;;7.90;;
36355;SDS011;22384;54.302;18.596;2022-12-18T09:11:43;15.75;;;7.03;;
36355;SDS011;22384;54.302;18.596;2022-12-18T09:14:11;19.00;;;7.95;;
36355;SDS011;22384;54.302;18.596;2022-12-18T09:16:38;15.63;;;7.68;;
36355;SDS011;22384;54.302;18.596;2022-12-18T09:19:04;20.42;;;9.45;;
36355;SDS011;22384;54.302;18.596;2022-12-18T09:21:32;16.77;;;7.38;;
36355;SDS011;22384;54.302;18.596;2022-12-18T09:24:00;19.38;;;7.90;;
36355;SDS011;22384;54.302;18.596;2022-12-18T09:26:27;17.95;;;7.20;;
36355;SDS011;22384;54.302;18.596;2022-12-18T09:28:54;18.95;;;8.23;;
36355;SDS011;22384;54.302;18.596;2022-12-18T09:31:21;20.83;;;9.15;;
36355;SDS011;22384;54.302;18.596;2022-12-18T09:33:50;18.27;;;7.97;;
36355;SDS011;22384;54.302;18.596;2022-12-18T09:36:17;20.55;;;9.25;;
36355;SDS011;22384;54.302;18.596;2022-12-18T09:38:44;18.92;;;8.25;;
36355;SDS011;22384;54.302;18.596;2022-12-18T09:41:28;23.00;;;9.38;;
36355;SDS011;22384;54.302;18.596;2022-12-18T09:46:51;19.45;;;7.85;;
36355;SDS011;22384;54.302;18.596;2022-12-18T09:49:19;21.42;;;8.50;;
36355;SDS011;22384;54.302;18.596;2022-12-18T09:51:57;21.38;;;9.00;;
36355;SDS011;22384;54.302;18.596;2022-12-18T09:54:32;21.05;;;8.85;;
36355;SDS011;22384;54.302;18.596;2022-12-18T09:57:01;18.52;;;7.20;;
36355;SDS011;22384;54.302;18.596;2022-12-18T09:59:37;16.45;;;6.95;;
36355;SDS011;22384;54.302;18.596;2022-12-18T10:02:25;17.95;;;7.00;;
36355;SDS011;22384;54.302;18.596;2022-12-18T10:05:05;24.98;;;9.27;;
36355;SDS011;22384;54.302;18.596;2022-12-18T10:07:39;24.58;;;8.77;;
36355;SDS011;22384;54.302;18.596;2022-12-18T10:20:45;16.35;;;8.07;;
36355;SDS011;22384;54.302;18.596;2022-12-18T10:23:22;17.30;;;6.90;;
36355;SDS011;22384;54.302;18.596;2022-12-18T10:25:55;17.50;;;7.50;;
36355;SDS011;22384;54.302;18.596;2022-12-18T10:28:26;25.58;;;9.05;;
36355;SDS011;22384;54.302;18.596;2022-12-18T10:30:55;24.30;;;8.20;;
36355;SDS011;22384;54.302;18.596;2022-12-18T10:33:29;19.08;;;8.75;;
36355;SDS011;22384;54.302;18.596;2022-12-18T10:35:56;17.13;;;7.65;;
36355;SDS011;22384;54.302;18.596;2022-12-18T10:38:26;23.73;;;8.68;;
36355;SDS011;22384;54.302;18.596;2022-12-18T10:40:59;20.02;;;8.60;;
36355;SDS011;22384;54.302;18.596;2022-12-18T10:43:29;21.80;;;7.35;;
36355;SDS011;22384;54.302;18.596;2022-12-18T10:46:00;18.20;;;8.35;;
36355;SDS011;22384;54.302;18.596;2022-12-18T10:50:53;18.63;;;7.63;;
36355;SDS011;22384;54.302;18.596;2022-12-18T10:53:22;20.27;;;8.50;;
36355;SDS011;22384;54.302;18.596;2022-12-18T10:55:49;13.32;;;6.68;;
36355;SDS011;22384;54.302;18.596;2022-12-18T11:04:02;17.80;;;8.10;;
36355;SDS011;22384;54.302;18.596;2022-12-18T11:06:29;17.93;;;7.73;;
36355;SDS011;22384;54.302;18.596;2022-12-18T11:09:22;19.02;;;7.90;;
36355;SDS011;22384;54.302;18.596;2022-12-18T11:14:57;20.45;;;8.80;;
36355;SDS011;22384;54.302;18.596;2022-12-18T11:20:23;17.85;;;8.35;;
36355;SDS011;22384;54.302;18.596;2022-12-18T11:23:11;17.38;;;6.95;;
36355;SDS011;22384;54.302;18.596;2022-12-18T11:25:38;15.48;;;7.28;;
36355;SDS011;22384;54.302;18.596;2022-12-18T11:30:39;17.20;;;6.88;;
36355;SDS011;22384;54.302;18.596;2022-12-18T11:33:20;11.52;;;5.95;;
36355;SDS011;22384;54.302;18.596;2022-12-18T11:35:49;15.13;;;6.97;;
36355;SDS011;22384;54.302;18.596;2022-12-18T11:38:20;19.17;;;6.25;;
36355;SDS011;22384;54.302;18.596;2022-12-18T11:40:51;17.75;;;7.55;;
36355;SDS011;22384;54.302;18.596;2022-12-18T11:43:55;19.73;;;7.07;;
36355;SDS011;22384;54.302;18.596;2022-12-18T11:49:22;20.50;;;8.02;;
36355;SDS011;22384;54.302;18.596;2022-12-18T11:52:09;15.05;;;6.38;;
36355;SDS011;22384;54.302;18.596;2022-12-18T11:54:36;23.58;;;8.13;;
36355;SDS011;22384;54.302;18.596;2022-12-18T12:16:29;31.08;;;10.13;;
36355;SDS011;22384;54.302;18.596;2022-12-18T12:27:47;10.23;;;5.22;;
36355;SDS011;22384;54.302;18.596;2022-12-18T12:38:42;13.25;;;6.47;;
36355;SDS011;22384;54.302;18.596;2022-12-18T12:41:24;11.43;;;5.70;;
36355;SDS011;22384;54.302;18.596;2022-12-18T12:44:33;14.15;;;6.20;;
36355;SDS011;22384;54.302;18.596;2022-12-18T12:47:11;11.23;;;5.32;;
36355;SDS011;22384;54.302;18.596;2022-12-18T12:49:40;20.65;;;9.65;;
36355;SDS011;22384;54.302;18.596;2022-12-18T12:52:15;13.85;;;6.10;;
36355;SDS011;22384;54.302;18.596;2022-12-18T12:54:42;16.17;;;6.13;;
36355;SDS011;22384;54.302;18.596;2022-12-18T12:57:23;16.83;;;7.43;;
36355;SDS011;22384;54.302;18.596;2022-12-18T13:02:36;14.05;;;6.97;;
36355;SDS011;22384;54.302;18.596;2022-12-18T13:07:41;20.50;;;9.40;;
36355;SDS011;22384;54.302;18.596;2022-12-18T13:12:55;13.57;;;7.05;;
36355;SDS011;22384;54.302;18.596;2022-12-18T13:20:39;18.23;;;7.70;;
36355;SDS011;22384;54.302;18.596;2022-12-18T13:31:01;30.73;;;10.60;;
36355;SDS011;22384;54.302;18.596;2022-12-18T13:49:55;29.38;;;10.25;;
36355;SDS011;22384;54.302;18.596;2022-12-18T13:52:33;38.55;;;12.25;;
36355;SDS011;22384;54.302;18.596;2022-12-18T13:55:02;21.88;;;7.30;;
36355;SDS011;22384;54.302;18.596;2022-12-18T13:57:37;28.63;;;8.65;;
36355;SDS011;22384;54.302;18.596;2022-12-18T14:03:00;21.60;;;8.85;;
36355;SDS011;22384;54.302;18.596;2022-12-18T14:05:31;19.35;;;8.65;;
36355;SDS011;22384;54.302;18.596;2022-12-18T14:08:19;17.33;;;7.68;;
36355;SDS011;22384;54.302;18.596;2022-12-18T14:10:54;20.05;;;8.25;;
36355;SDS011;22384;54.302;18.596;2022-12-18T14:13:28;25.10;;;11.02;;
36355;SDS011;22384;54.302;18.596;2022-12-18T14:16:06;28.42;;;11.15;;
36355;SDS011;22384;54.302;18.596;2022-12-18T14:21:15;24.58;;;10.60;;
36355;SDS011;22384;54.302;18.596;2022-12-18T14:23:44;49.70;;;19.13;;
36355;SDS011;22384;54.302;18.596;2022-12-18T14:26:20;28.02;;;12.13;;
36355;SDS011;22384;54.302;18.596;2022-12-18T14:28:47;29.10;;;10.30;;
36355;SDS011;22384;54.302;18.596;2022-12-18T14:31:26;71.60;;;28.50;;
36355;SDS011;22384;54.302;18.596;2022-12-18T14:33:54;52.20;;;18.35;;
36355;SDS011;22384;54.302;18.596;2022-12-18T14:36:26;22.92;;;11.70;;
36355;SDS011;22384;54.302;18.596;2022-12-18T14:38:56;25.45;;;10.27;;
36355;SDS011;22384;54.302;18.596;2022-12-18T14:41:25;24.45;;;9.35;;
36355;SDS011;22384;54.302;18.596;2022-12-18T14:43:52;35.90;;;11.88;;
36355;SDS011;22384;54.302;18.596;2022-12-18T14:46:36;19.73;;;10.02;;
36355;SDS011;22384;54.302;18.596;2022-12-18T14:51:51;24.23;;;10.43;;
36355;SDS011;22384;54.302;18.596;2022-12-18T14:54:18;31.20;;;13.13;;
36355;SDS011;22384;54.302;18.596;2022-12-18T14:56:47;47.55;;;16.40;;
36355;SDS011;22384;54.302;18.596;2022-12-18T14:59:15;53.00;;;18.35;;
36355;SDS011;22384;54.302;18.596;2022-12-18T15:04:26;77.50;;;36.17;;
36355;SDS011;22384;54.302;18.596;2022-12-18T15:07:11;93.82;;;42.00;;
36355;SDS011;22384;54.302;18.596;2022-12-18T15:09:39;89.57;;;32.17;;
36355;SDS011;22384;54.302;18.596;2022-12-18T15:15:05;55.92;;;19.83;;
36355;SDS011;22384;54.302;18.596;2022-12-18T15:20:50;68.93;;;25.65;;
36355;SDS011;22384;54.302;18.596;2022-12-18T15:28:31;41.85;;;17.30;;
36355;SDS011;22384;54.302;18.596;2022-12-18T15:36:22;34.25;;;14.35;;
36355;SDS011;22384;54.302;18.596;2022-12-18T15:38:50;47.80;;;17.52;;
36355;SDS011;22384;54.302;18.596;2022-12-18T15:56:47;82.68;;;31.90;;
36355;SDS011;22384;54.302;18.596;2022-12-18T15:59:32;52.42;;;19.13;;
36355;SDS011;22384;54.302;18.596;2022-12-18T16:02:19;43.28;;;15.55;;
36355;SDS011;22384;54.302;18.596;2022-12-18T16:04:50;54.63;;;17.98;;
36355;SDS011;22384;54.302;18.596;2022-12-18T16:07:22;63.50;;;21.80;;
36355;SDS011;22384;54.302;18.596;2022-12-18T16:09:50;62.35;;;22.27;;
36355;SDS011;22384;54.302;18.596;2022-12-18T16:12:17;46.70;;;19.85;;
36355;SDS011;22384;54.302;18.596;2022-12-18T16:14:44;73.50;;;24.85;;
36355;SDS011;22384;54.302;18.596;2022-12-18T16:17:11;66.60;;;22.23;;
36355;SDS011;22384;54.302;18.596;2022-12-18T16:19:37;54.92;;;20.15;;
36355;SDS011;22384;54.302;18.596;2022-12-18T16:22:04;47.50;;;18.02;;
36355;SDS011;22384;54.302;18.596;2022-12-18T16:24:31;51.30;;;18.60;;
36355;SDS011;22384;54.302;18.596;2022-12-18T16:26:59;37.40;;;15.32;;
36355;SDS011;22384;54.302;18.596;2022-12-18T16:29:27;43.20;;;15.73;;
36355;SDS011;22384;54.302;18.596;2022-12-18T16:31:54;42.75;;;16.25;;
36355;SDS011;22384;54.302;18.596;2022-12-18T16:34:27;41.17;;;14.75;;
36355;SDS011;22384;54.302;18.596;2022-12-18T16:36:58;39.35;;;15.68;;
36355;SDS011;22384;54.302;18.596;2022-12-18T16:39:25;51.05;;;18.05;;
36355;SDS011;22384;54.302;18.596;2022-12-18T16:41:54;44.65;;;16.55;;
36355;SDS011;22384;54.302;18.596;2022-12-18T16:44:21;46.22;;;17.67;;
36355;SDS011;22384;54.302;18.596;2022-12-18T16:46:47;49.75;;;16.52;;
36355;SDS011;22384;54.302;18.596;2022-12-18T16:49:14;37.83;;;14.32;;
36355;SDS011;22384;54.302;18.596;2022-12-18T16:51:40;47.40;;;18.35;;
36355;SDS011;22384;54.302;18.596;2022-12-18T16:54:09;33.28;;;13.20;;
36355;SDS011;22384;54.302;18.596;2022-12-18T16:56:35;35.55;;;13.43;;
36355;SDS011;22384;54.302;18.596;2022-12-18T16:59:02;42.03;;;14.80;;
36355;SDS011;22384;54.302;18.596;2022-12-18T17:01:30;47.75;;;16.08;;
36355;SDS011;22384;54.302;18.596;2022-12-18T17:03:58;47.13;;;16.30;;
36355;SDS011;22384;54.302;18.596;2022-12-18T17:06:26;42.97;;;17.45;;
36355;SDS011;22384;54.302;18.596;2022-12-18T17:08:55;54.47;;;18.98;;
36355;SDS011;22384;54.302;18.596;2022-12-18T17:11:23;47.75;;;17.15;;
36355;SDS011;22384;54.302;18.596;2022-12-18T17:13:53;49.22;;;17.55;;
36355;SDS011;22384;54.302;18.596;2022-12-18T17:16:20;44.33;;;14.45;;
36355;SDS011;22384;54.302;18.596;2022-12-18T17:18:47;40.35;;;15.55;;
36355;SDS011;22384;54.302;18.596;2022-12-18T17:21:16;43.60;;;16.13;;
36355;SDS011;22384;54.302;18.596;2022-12-18T17:23:43;45.60;;;16.42;;
36355;SDS011;22384;54.302;18.596;2022-12-18T17:26:11;42.08;;;16.10;;
36355;SDS011;22384;54.302;18.596;2022-12-18T17:28:38;42.28;;;16.60;;
36355;SDS011;22384;54.302;18.596;2022-12-18T17:31:12;42.85;;;16.23;;